Weather at Riverside Airport

Public forecast

Using degrees Fahrenheit for public forecast. Weather courtesy of forecast.io.

Closest aviation weather report (METAR) to Riverside Airport

Closest report is Wichita Eisenhower National Airport, 6.0 nm (11.2 km) SSW. Retrieved 2020/09/28 04:53 UTC (49 minutes ago):

KICT 280453Z 27005KT 10SM OVC100 12/10 A3007 RMK AO2 RAE08 SLP177 P0000 T01170100

Closest aviation forecast (TAF) to Riverside Airport

Closest forecast is Wichita Eisenhower National Airport, 6.0 nm (11.2 km) SSW. Retrieved 2020-09-28 00:42 UTC (5 hours ago):

TAF KICT 272339Z 2800/2824 02015G26KT P6SM OVC060 TEMPO 2801/2803 6SM -SHRA BR FM280400 34010KT P6SM FEW250 FM281500 34014G23KT P6SM FEW250